createdAt,value
2018-10-21T00:00:02.898Z,40.10
2018-10-21T00:02:29.169Z,40.10
2018-10-21T00:04:55.284Z,40.20
2018-10-21T00:07:21.466Z,40.10
2018-10-21T00:09:47.631Z,40.10
2018-10-21T00:12:13.808Z,40.10
2018-10-21T00:14:40.749Z,40.00
2018-10-21T00:17:06.923Z,40.00
2018-10-21T00:19:33.088Z,40.00
2018-10-21T00:22:00.028Z,40.00
2018-10-21T00:24:26.182Z,40.00
2018-10-21T00:26:52.344Z,40.00
2018-10-21T00:29:18.534Z,40.00
2018-10-21T00:31:44.703Z,40.50
2018-10-21T00:34:10.874Z,39.80
2018-10-21T00:36:37.812Z,39.90
2018-10-21T00:39:04.011Z,39.80
2018-10-21T00:41:30.164Z,39.80
2018-10-21T00:43:57.106Z,39.70
2018-10-21T00:46:23.281Z,39.60
2018-10-21T00:48:49.531Z,39.60
2018-10-21T00:51:15.793Z,39.70
2018-10-21T00:53:42.189Z,39.60
2018-10-21T00:56:08.373Z,39.60
2018-10-21T00:58:34.548Z,39.50
2018-10-21T01:01:00.721Z,39.60
2018-10-21T01:03:27.666Z,39.50
2018-10-21T01:05:53.827Z,39.50
2018-10-21T01:08:20.002Z,39.60
2018-10-21T01:10:46.178Z,39.60
2018-10-21T01:13:12.356Z,39.60
2018-10-21T01:15:38.542Z,39.50
2018-10-21T01:18:04.725Z,39.50
2018-10-21T01:20:30.902Z,39.40
2018-10-21T01:22:57.083Z,39.50
2018-10-21T01:25:24.016Z,39.40
2018-10-21T01:27:50.191Z,39.40
2018-10-21T01:30:16.363Z,39.50
2018-10-21T01:32:42.538Z,39.40
2018-10-21T01:35:08.798Z,39.40
2018-10-21T01:37:34.974Z,39.30
2018-10-21T01:40:01.937Z,39.30
2018-10-21T01:42:28.099Z,39.30
2018-10-21T01:44:54.306Z,39.20
2018-10-21T01:47:20.474Z,39.00
2018-10-21T01:49:46.635Z,39.30
2018-10-21T01:52:12.811Z,39.20
2018-10-21T01:54:39.022Z,39.20
2018-10-21T01:57:05.272Z,39.10
2018-10-21T01:59:32.139Z,39.10
2018-10-21T02:01:58.313Z,39.10
2018-10-21T02:04:24.479Z,39.00
2018-10-21T02:06:50.645Z,39.10
2018-10-21T02:09:17.622Z,39.10
2018-10-21T02:11:43.763Z,39.10
2018-10-21T02:14:09.936Z,39.10
2018-10-21T02:16:36.116Z,39.10
2018-10-21T02:19:02.280Z,39.10
2018-10-21T02:21:28.458Z,39.00
2018-10-21T02:23:54.627Z,39.00
2018-10-21T02:26:20.870Z,39.00
2018-10-21T02:28:47.016Z,39.10
2018-10-21T02:31:14.206Z,39.00
2018-10-21T02:33:40.650Z,38.90
2018-10-21T02:36:06.595Z,38.90
2018-10-21T02:38:34.493Z,38.90
2018-10-21T02:41:00.685Z,38.80
2018-10-21T02:43:26.953Z,38.80
2018-10-21T02:45:53.106Z,38.90
2018-10-21T02:48:19.275Z,38.90
2018-10-21T02:50:45.443Z,38.90
2018-10-21T02:53:11.976Z,38.90
2018-10-21T02:55:38.161Z,38.90
2018-10-21T02:58:04.327Z,38.80
2018-10-21T03:00:30.498Z,38.70
2018-10-21T03:02:56.702Z,38.60
2018-10-21T03:05:22.871Z,38.70
2018-10-21T03:07:49.042Z,38.60
2018-10-21T03:10:15.214Z,38.60
2018-10-21T03:12:41.392Z,38.60
2018-10-21T03:15:07.616Z,38.60
2018-10-21T03:17:34.632Z,38.70
2018-10-21T03:20:00.818Z,38.60
2018-10-21T03:22:27.002Z,38.60
2018-10-21T03:24:53.158Z,38.70
2018-10-21T03:27:19.389Z,38.60
2018-10-21T03:29:46.321Z,38.60
2018-10-21T03:32:12.509Z,38.60
2018-10-21T03:34:38.672Z,38.50
2018-10-21T03:37:05.618Z,38.70
2018-10-21T03:39:31.790Z,38.70
2018-10-21T03:41:57.954Z,38.60
2018-10-21T03:44:24.118Z,38.70
2018-10-21T03:46:50.291Z,38.60
2018-10-21T03:49:16.475Z,38.50
2018-10-21T03:51:42.652Z,38.50
2018-10-21T03:54:10.350Z,38.40
2018-10-21T03:56:36.531Z,38.40
2018-10-21T03:59:02.795Z,38.40
2018-10-21T04:01:28.967Z,38.40
2018-10-21T04:03:55.171Z,38.40
2018-10-21T04:06:21.348Z,38.40
2018-10-21T04:08:47.570Z,38.30
2018-10-21T04:11:13.750Z,38.40
2018-10-21T04:13:41.077Z,38.40
2018-10-21T04:16:08.066Z,38.40
2018-10-21T04:18:35.005Z,38.30
2018-10-21T04:21:01.257Z,38.20
2018-10-21T04:23:27.482Z,38.30
2018-10-21T04:25:53.642Z,38.30
2018-10-21T04:28:19.833Z,38.30
2018-10-21T04:30:46.001Z,38.30
2018-10-21T04:33:12.189Z,38.30
2018-10-21T04:35:38.377Z,38.30
2018-10-21T04:38:04.550Z,38.20
2018-10-21T04:40:30.723Z,38.20
2018-10-21T04:42:57.671Z,38.40
2018-10-21T04:45:23.848Z,38.20
2018-10-21T04:47:50.010Z,38.20
2018-10-21T04:50:16.174Z,38.20
2018-10-21T04:52:42.338Z,38.20
2018-10-21T04:55:08.507Z,38.20
2018-10-21T04:57:34.678Z,38.20
2018-10-21T05:00:00.854Z,38.30
2018-10-21T05:02:27.025Z,38.20
2018-10-21T05:04:53.276Z,38.50
2018-10-21T05:07:19.489Z,38.20
2018-10-21T05:09:45.673Z,38.20
2018-10-21T05:12:11.845Z,38.10
2018-10-21T05:14:38.027Z,38.10
2018-10-21T05:17:04.198Z,38.10
2018-10-21T05:19:30.362Z,38.10
2018-10-21T05:21:56.576Z,38.00
2018-10-21T05:24:22.744Z,38.00
2018-10-21T05:26:48.908Z,38.00
2018-10-21T05:29:15.079Z,38.10
2018-10-21T05:31:41.236Z,38.20
2018-10-21T05:34:07.442Z,38.10
2018-10-21T05:36:33.603Z,38.00
2018-10-21T05:38:59.769Z,38.00
2018-10-21T05:41:25.941Z,38.00
2018-10-21T05:43:52.122Z,38.00
2018-10-21T05:46:18.315Z,38.00
2018-10-21T05:48:44.497Z,38.00
2018-10-21T05:51:10.679Z,38.00
2018-10-21T05:53:36.907Z,38.00
2018-10-21T05:56:03.139Z,38.10
2018-10-21T05:58:29.325Z,38.00
2018-10-21T06:00:55.473Z,38.00
2018-10-21T06:03:22.406Z,37.90
2018-10-21T06:05:48.575Z,37.90
2018-10-21T06:08:14.746Z,37.90
2018-10-21T06:10:40.939Z,38.00
2018-10-21T06:13:07.098Z,37.80
2018-10-21T06:15:33.256Z,37.90
2018-10-21T06:17:59.414Z,37.90
2018-10-21T06:20:25.653Z,37.80
2018-10-21T06:22:51.844Z,38.00
2018-10-21T06:25:18.004Z,37.90
2018-10-21T06:27:44.196Z,38.00
2018-10-21T06:30:10.370Z,38.00
2018-10-21T06:32:36.556Z,37.90
2018-10-21T06:35:02.726Z,38.00
2018-10-21T06:37:28.918Z,38.00
2018-10-21T06:39:55.098Z,37.90
2018-10-21T06:42:21.270Z,37.90
2018-10-21T06:44:47.438Z,37.70
2018-10-21T06:47:13.659Z,37.70
2018-10-21T06:49:39.813Z,37.90
2018-10-21T06:52:06.017Z,37.90
2018-10-21T06:54:32.185Z,37.80
2018-10-21T06:56:58.446Z,37.80
2018-10-21T06:59:26.071Z,37.70
2018-10-21T07:01:52.238Z,37.60
2018-10-21T07:04:18.529Z,37.70
2018-10-21T07:06:45.374Z,37.90
2018-10-21T07:09:11.549Z,37.80
2018-10-21T07:11:37.716Z,37.80
2018-10-21T07:14:03.882Z,37.90
2018-10-21T07:16:30.146Z,38.10
2018-10-21T07:18:56.251Z,37.70
2018-10-21T07:21:22.443Z,37.60
2018-10-21T07:23:49.380Z,37.30
2018-10-21T07:26:15.547Z,37.30
2018-10-21T07:28:41.814Z,37.30
2018-10-21T07:31:07.982Z,37.20
2018-10-21T07:33:34.953Z,37.00
2018-10-21T07:36:01.122Z,37.00
2018-10-21T07:38:27.331Z,37.00
2018-10-21T07:40:54.522Z,37.00
2018-10-21T07:43:20.691Z,36.90
2018-10-21T07:45:46.858Z,36.90
2018-10-21T07:48:13.016Z,37.00
2018-10-21T07:50:39.199Z,37.00
2018-10-21T07:53:05.504Z,36.90
2018-10-21T07:55:31.727Z,37.00
2018-10-21T07:57:57.916Z,37.10
2018-10-21T08:00:24.109Z,37.10
2018-10-21T08:02:50.284Z,37.10
2018-10-21T08:05:17.253Z,37.10
2018-10-21T08:07:43.424Z,37.10
2018-10-21T08:10:09.691Z,37.10
2018-10-21T08:12:35.831Z,37.20
2018-10-21T08:15:02.069Z,37.30
2018-10-21T08:17:28.203Z,37.30
2018-10-21T08:19:54.380Z,37.30
2018-10-21T08:22:20.530Z,37.30
2018-10-21T08:24:46.706Z,37.50
2018-10-21T08:27:12.877Z,37.30
2018-10-21T08:29:39.063Z,37.30
2018-10-21T08:32:05.291Z,37.30
2018-10-21T08:34:31.465Z,37.40
2018-10-21T08:36:58.402Z,37.60
2018-10-21T08:39:24.566Z,37.50
2018-10-21T08:41:50.745Z,37.50
2018-10-21T08:44:16.899Z,37.50
2018-10-21T08:46:43.153Z,37.60
2018-10-21T08:49:09.345Z,37.70
2018-10-21T08:51:36.231Z,37.80
2018-10-21T08:54:02.399Z,37.80
2018-10-21T08:56:28.556Z,37.80
2018-10-21T08:58:54.726Z,37.80
2018-10-21T09:01:20.960Z,37.80
2018-10-21T09:03:47.135Z,37.80
2018-10-21T09:06:13.330Z,37.90
2018-10-21T09:08:39.498Z,38.00
2018-10-21T09:11:05.728Z,38.00
2018-10-21T09:13:31.876Z,38.10
2018-10-21T09:15:58.057Z,38.10
2018-10-21T09:18:24.246Z,38.10
2018-10-21T09:20:50.415Z,38.10
2018-10-21T09:23:17.394Z,38.20
2018-10-21T09:25:43.556Z,38.10
2018-10-21T09:28:09.758Z,38.20
2018-10-21T09:30:35.991Z,38.30
2018-10-21T09:33:02.174Z,38.30
2018-10-21T09:35:29.111Z,38.40
2018-10-21T09:37:55.313Z,38.30
2018-10-21T09:40:21.576Z,38.40
2018-10-21T09:42:47.686Z,38.40
2018-10-21T09:45:13.861Z,38.50
2018-10-21T09:47:40.047Z,38.50
2018-10-21T09:50:06.304Z,38.50
2018-10-21T09:52:32.477Z,38.60
2018-10-21T09:54:58.672Z,38.60
2018-10-21T09:57:24.890Z,38.70
2018-10-21T09:59:51.067Z,38.60
2018-10-21T10:02:17.253Z,38.60
2018-10-21T10:04:43.423Z,38.60
2018-10-21T10:07:09.794Z,38.60
2018-10-21T10:09:35.854Z,38.60
2018-10-21T10:12:02.027Z,38.70
2018-10-21T10:14:28.211Z,38.70
2018-10-21T10:16:54.512Z,38.60
2018-10-21T10:19:20.575Z,38.60
2018-10-21T10:21:46.749Z,38.70
2018-10-21T10:24:13.687Z,38.50
2018-10-21T10:26:39.872Z,38.50
2018-10-21T10:29:06.038Z,38.40
2018-10-21T10:31:34.434Z,38.40
2018-10-21T10:34:01.381Z,38.60
2018-10-21T10:36:27.566Z,38.60
2018-10-21T10:38:53.743Z,38.60
2018-10-21T10:41:20.666Z,38.60
2018-10-21T10:43:47.595Z,38.60
2018-10-21T10:46:13.794Z,38.50
2018-10-21T10:48:39.975Z,38.60
2018-10-21T10:51:06.153Z,38.60
2018-10-21T10:53:32.337Z,38.60
2018-10-21T10:55:59.497Z,38.50
2018-10-21T10:58:25.666Z,38.50
2018-10-21T11:00:51.835Z,38.60
2018-10-21T11:03:18.006Z,38.60
2018-10-21T11:05:44.184Z,38.50
2018-10-21T11:08:11.500Z,38.60
2018-10-21T11:10:37.671Z,38.50
2018-10-21T11:13:04.620Z,38.50
2018-10-21T11:15:30.798Z,38.30
2018-10-21T11:17:57.015Z,38.40
2018-10-21T11:20:23.198Z,38.00
2018-10-21T11:22:49.479Z,38.20
2018-10-21T11:25:15.644Z,38.00
2018-10-21T11:27:41.769Z,38.10
2018-10-21T11:30:07.955Z,37.90
2018-10-21T11:32:34.119Z,38.00
2018-10-21T11:35:00.278Z,38.10
2018-10-21T11:37:27.396Z,38.30
2018-10-21T11:39:53.423Z,38.30
2018-10-21T11:42:19.603Z,38.30
2018-10-21T11:44:45.774Z,38.30
2018-10-21T11:47:11.942Z,38.40
2018-10-21T11:49:38.095Z,38.60
2018-10-21T11:52:04.314Z,38.60
2018-10-21T11:54:30.464Z,38.40
2018-10-21T11:56:56.644Z,38.40
2018-10-21T11:59:22.821Z,38.50
2018-10-21T12:01:49.001Z,38.50
2018-10-21T12:04:15.281Z,38.60
2018-10-21T12:06:42.146Z,38.70
2018-10-21T12:09:08.336Z,38.70
2018-10-21T12:11:34.498Z,38.60
2018-10-21T12:14:00.659Z,38.50
2018-10-21T12:16:27.598Z,38.50
2018-10-21T12:18:53.775Z,38.50
2018-10-21T12:21:19.969Z,38.60
2018-10-21T12:23:46.222Z,38.60
2018-10-21T12:26:12.390Z,38.60
2018-10-21T12:28:39.336Z,39.40
2018-10-21T12:31:05.559Z,38.60
2018-10-21T12:33:31.696Z,38.60
2018-10-21T12:35:57.858Z,38.70
2018-10-21T12:38:24.028Z,38.70
2018-10-21T12:40:50.209Z,38.80
2018-10-21T12:43:16.496Z,38.80
2018-10-21T12:45:42.579Z,38.80
2018-10-21T12:48:08.750Z,38.90
2018-10-21T12:50:34.921Z,38.90
2018-10-21T12:53:01.157Z,38.90
2018-10-21T12:55:28.072Z,38.90
2018-10-21T12:57:54.244Z,38.90
2018-10-21T13:00:20.414Z,38.90
2018-10-21T13:02:46.566Z,39.00
2018-10-21T13:05:12.751Z,39.00
2018-10-21T13:07:38.978Z,39.00
2018-10-21T13:10:05.193Z,39.00
2018-10-21T13:12:31.342Z,39.00
2018-10-21T13:14:57.516Z,39.00
2018-10-21T13:17:23.691Z,39.00
2018-10-21T13:19:49.926Z,39.00
2018-10-21T13:22:16.141Z,39.00
2018-10-21T13:24:42.258Z,39.10
2018-10-21T13:27:08.437Z,39.10
2018-10-21T13:29:35.363Z,39.10
2018-10-21T13:32:01.554Z,39.00
2018-10-21T13:34:27.812Z,39.10
2018-10-21T13:36:54.020Z,39.00
2018-10-21T13:39:20.185Z,39.00
2018-10-21T13:41:47.116Z,39.10
2018-10-21T13:44:13.306Z,39.00
2018-10-21T13:46:39.481Z,39.00
2018-10-21T13:49:05.751Z,39.00
2018-10-21T13:51:31.941Z,39.70
2018-10-21T13:53:58.119Z,39.10
2018-10-21T13:56:24.293Z,39.10
2018-10-21T13:58:50.465Z,39.10
2018-10-21T14:01:16.650Z,39.10
2018-10-21T14:03:43.603Z,38.70
2018-10-21T14:06:09.778Z,39.00
2018-10-21T14:08:35.962Z,39.00
2018-10-21T14:11:02.164Z,39.00
2018-10-21T14:13:28.373Z,39.00
2018-10-21T14:15:54.603Z,39.10
2018-10-21T14:18:20.787Z,39.00
2018-10-21T14:20:46.966Z,39.00
2018-10-21T14:23:13.139Z,39.10
2018-10-21T14:25:39.325Z,39.10
2018-10-21T14:28:05.513Z,39.10
2018-10-21T14:30:31.816Z,39.00
2018-10-21T14:32:58.012Z,39.20
2018-10-21T14:35:24.285Z,39.20
2018-10-21T14:37:50.698Z,39.20
2018-10-21T14:40:16.898Z,39.10
2018-10-21T14:42:43.115Z,39.20
2018-10-21T14:45:09.395Z,39.30
2018-10-21T14:47:37.234Z,39.30
2018-10-21T14:50:03.434Z,39.30
2018-10-21T14:52:29.672Z,39.30
2018-10-21T14:54:56.092Z,39.40
2018-10-21T14:57:22.332Z,39.20
2018-10-21T14:59:48.568Z,39.30
2018-10-21T15:02:14.946Z,39.20
2018-10-21T15:04:41.013Z,39.20
2018-10-21T15:07:07.249Z,39.30
2018-10-21T15:09:33.482Z,39.20
2018-10-21T15:11:59.723Z,39.20
2018-10-21T15:14:25.937Z,39.30
2018-10-21T15:16:52.177Z,39.10
2018-10-21T15:19:18.403Z,39.20
2018-10-21T15:21:44.826Z,39.30
2018-10-21T15:24:11.688Z,39.20
2018-10-21T15:26:39.534Z,39.90
2018-10-21T15:29:05.783Z,39.20
2018-10-21T15:31:31.895Z,39.20
2018-10-21T15:33:58.090Z,39.20
2018-10-21T15:36:24.304Z,39.20
2018-10-21T15:38:50.602Z,39.20
2018-10-21T15:41:17.864Z,39.10
2018-10-21T15:43:44.892Z,39.10
2018-10-21T15:46:11.102Z,39.00
2018-10-21T15:48:37.314Z,39.10
2018-10-21T15:51:03.480Z,39.10
2018-10-21T15:53:29.676Z,39.10
2018-10-21T15:55:55.939Z,39.10
2018-10-21T15:58:22.102Z,39.10
2018-10-21T16:00:48.317Z,39.20
2018-10-21T16:03:15.256Z,39.50
2018-10-21T16:05:41.449Z,39.30
2018-10-21T16:08:07.735Z,39.30
2018-10-21T16:10:33.885Z,39.30
2018-10-21T16:13:00.077Z,39.30
2018-10-21T16:15:26.268Z,40.00
2018-10-21T16:17:52.490Z,39.40
2018-10-21T16:20:23.648Z,39.40
2018-10-21T16:22:49.881Z,39.50
2018-10-21T16:25:17.749Z,39.70
2018-10-21T16:27:44.218Z,39.60
2018-10-21T16:30:11.347Z,39.60
2018-10-21T16:32:37.629Z,39.60
2018-10-21T16:35:05.622Z,39.70
2018-10-21T16:37:31.905Z,39.80
2018-10-21T16:39:58.097Z,39.90
2018-10-21T16:42:24.360Z,40.30
2018-10-21T16:44:50.645Z,40.10
2018-10-21T16:47:16.864Z,40.50
2018-10-21T16:49:43.085Z,40.30
2018-10-21T16:52:09.336Z,40.00
2018-10-21T16:54:35.609Z,40.20
2018-10-21T16:57:01.799Z,40.30
2018-10-21T16:59:28.144Z,40.40
2018-10-21T17:01:54.233Z,40.20
2018-10-21T17:04:20.452Z,40.50
2018-10-21T17:06:46.694Z,40.40
2018-10-21T17:09:13.012Z,40.50
2018-10-21T17:11:39.147Z,40.50
2018-10-21T17:14:05.613Z,40.60
2018-10-21T17:16:31.815Z,40.30
2018-10-21T17:18:58.625Z,40.80
2018-10-21T17:21:24.891Z,41.00
2018-10-21T17:23:51.101Z,40.60
2018-10-21T17:26:17.347Z,40.40
2018-10-21T17:28:43.591Z,40.70
2018-10-21T17:31:11.353Z,40.30
2018-10-21T17:33:37.527Z,40.30
2018-10-21T17:36:03.724Z,40.30
2018-10-21T17:38:29.900Z,40.40
2018-10-21T17:40:56.078Z,40.40
2018-10-21T17:43:22.243Z,40.40
2018-10-21T17:45:48.476Z,40.40
2018-10-21T17:48:14.655Z,40.50
2018-10-21T17:50:40.837Z,40.50
2018-10-21T17:53:07.019Z,40.50
2018-10-21T17:55:33.193Z,40.50
2018-10-21T17:57:59.376Z,40.50
2018-10-21T18:00:25.557Z,40.50
2018-10-21T18:02:51.744Z,40.50
2018-10-21T18:05:18.674Z,40.60
2018-10-21T18:07:45.626Z,40.60
2018-10-21T18:10:12.686Z,40.60
2018-10-21T18:12:38.806Z,40.50
2018-10-21T18:15:04.965Z,40.60
2018-10-21T18:17:31.138Z,40.60
2018-10-21T18:19:57.333Z,40.60
2018-10-21T18:22:23.519Z,40.60
2018-10-21T18:24:49.695Z,40.50
2018-10-21T18:27:15.870Z,40.60
2018-10-21T18:29:42.806Z,40.50
2018-10-21T18:32:08.970Z,40.50
2018-10-21T18:34:35.150Z,40.60
2018-10-21T18:37:01.425Z,40.60
2018-10-21T18:39:27.509Z,40.60
2018-10-21T18:41:53.691Z,40.60
2018-10-21T18:44:19.950Z,40.50
2018-10-21T18:46:46.120Z,40.60
2018-10-21T18:49:13.117Z,40.60
2018-10-21T18:51:39.254Z,40.60
2018-10-21T18:54:06.935Z,40.60
2018-10-21T18:56:33.108Z,40.60
2018-10-21T18:58:59.282Z,40.60
2018-10-21T19:01:25.453Z,40.70
2018-10-21T19:03:51.617Z,40.70
2018-10-21T19:06:17.791Z,40.60
2018-10-21T19:08:43.967Z,40.60
2018-10-21T19:11:10.155Z,40.60
2018-10-21T19:13:36.326Z,40.60
2018-10-21T19:16:02.562Z,40.60
2018-10-21T19:18:28.707Z,40.60
2018-10-21T19:20:54.864Z,40.60
2018-10-21T19:23:21.034Z,40.60
2018-10-21T19:25:47.193Z,40.60
2018-10-21T19:28:13.415Z,40.60
2018-10-21T19:30:39.557Z,40.70
2018-10-21T19:33:05.730Z,40.70
2018-10-21T19:35:31.901Z,40.70
2018-10-21T19:37:58.066Z,40.70
2018-10-21T19:40:24.225Z,41.00
2018-10-21T19:42:50.418Z,40.70
2018-10-21T19:45:16.590Z,40.70
2018-10-21T19:47:42.754Z,40.70
2018-10-21T19:50:08.926Z,40.70
2018-10-21T19:52:35.102Z,40.70
2018-10-21T19:55:02.290Z,40.70
2018-10-21T19:57:28.455Z,40.60
2018-10-21T19:59:54.632Z,40.70
2018-10-21T20:02:20.876Z,40.70
2018-10-21T20:04:47.478Z,40.70
2018-10-21T20:07:13.729Z,40.70
2018-10-21T20:09:41.387Z,40.70
2018-10-21T20:12:07.578Z,40.60
2018-10-21T20:14:33.745Z,40.70
2018-10-21T20:16:59.913Z,40.70
2018-10-21T20:19:26.114Z,40.70
2018-10-21T20:21:52.295Z,40.70
2018-10-21T20:24:18.453Z,40.70
2018-10-21T20:26:44.612Z,40.70
2018-10-21T20:29:10.780Z,40.70
2018-10-21T20:31:36.957Z,40.70
2018-10-21T20:34:03.130Z,40.70
2018-10-21T20:36:30.101Z,41.20
2018-10-21T20:38:56.272Z,40.60
2018-10-21T20:41:22.447Z,40.70
2018-10-21T20:43:49.369Z,40.60
2018-10-21T20:46:15.591Z,40.60
2018-10-21T20:48:41.729Z,40.60
2018-10-21T20:51:08.293Z,40.70
2018-10-21T20:53:34.455Z,40.70
2018-10-21T20:56:00.626Z,40.60
2018-10-21T20:58:26.839Z,40.60
2018-10-21T21:00:54.515Z,40.60
2018-10-21T21:03:21.439Z,40.60
2018-10-21T21:05:47.600Z,40.60
2018-10-21T21:08:13.835Z,40.60
2018-10-21T21:10:39.951Z,40.60
2018-10-21T21:13:06.882Z,40.60
2018-10-21T21:15:33.056Z,40.60
2018-10-21T21:17:59.302Z,40.60
2018-10-21T21:20:25.479Z,40.60
2018-10-21T21:22:51.655Z,40.60
2018-10-21T21:25:17.854Z,40.50
2018-10-21T21:27:44.023Z,40.50
2018-10-21T21:30:10.196Z,40.50
2018-10-21T21:32:36.406Z,40.50
2018-10-21T21:35:02.620Z,40.50
2018-10-21T21:37:28.894Z,40.50
2018-10-21T21:39:55.861Z,40.50
2018-10-21T21:42:22.044Z,40.50
2018-10-21T21:44:48.215Z,40.40
2018-10-21T21:47:14.400Z,40.40
2018-10-21T21:49:40.562Z,40.40
2018-10-21T21:52:06.759Z,40.40
2018-10-21T21:54:32.923Z,40.40
2018-10-21T21:56:59.125Z,39.90
2018-10-21T21:59:25.296Z,40.30
2018-10-21T22:01:51.481Z,40.30
2018-10-21T22:04:17.680Z,40.30
2018-10-21T22:06:43.883Z,40.30
2018-10-21T22:09:10.064Z,40.30
2018-10-21T22:11:36.249Z,40.30
2018-10-21T22:14:02.446Z,40.30
2018-10-21T22:16:28.604Z,40.30
2018-10-21T22:18:54.989Z,40.20
2018-10-21T22:21:21.157Z,40.30
2018-10-21T22:23:47.323Z,40.20
2018-10-21T22:26:13.489Z,40.30
2018-10-21T22:28:39.666Z,40.20
2018-10-21T22:31:05.831Z,40.20
2018-10-21T22:33:32.006Z,40.20
2018-10-21T22:35:58.228Z,40.20
2018-10-21T22:38:24.387Z,40.00
2018-10-21T22:40:50.540Z,40.00
2018-10-21T22:43:17.494Z,40.10
2018-10-21T22:45:43.674Z,40.60
2018-10-21T22:48:09.876Z,40.10
2018-10-21T22:50:36.046Z,40.00
2018-10-21T22:53:02.246Z,40.00
2018-10-21T22:55:28.411Z,40.00
2018-10-21T22:57:56.134Z,40.00
2018-10-21T23:00:22.315Z,40.00
2018-10-21T23:02:48.511Z,40.00
2018-10-21T23:05:14.678Z,40.00
2018-10-21T23:07:41.637Z,40.00
2018-10-21T23:10:07.813Z,40.00
2018-10-21T23:12:33.990Z,40.00
2018-10-21T23:15:00.164Z,40.00
2018-10-21T23:17:26.334Z,40.00
2018-10-21T23:19:52.486Z,40.00
2018-10-21T23:22:18.752Z,40.00
2018-10-21T23:24:45.625Z,40.00
2018-10-21T23:27:12.781Z,40.00
2018-10-21T23:29:38.964Z,40.00
2018-10-21T23:32:05.144Z,40.00
2018-10-21T23:34:31.341Z,40.00
2018-10-21T23:36:57.510Z,39.90
2018-10-21T23:39:23.690Z,40.50
2018-10-21T23:41:49.845Z,39.80
2018-10-21T23:44:16.027Z,39.80
2018-10-21T23:46:43.699Z,39.80
2018-10-21T23:49:09.863Z,39.80
2018-10-21T23:51:36.807Z,39.90
2018-10-21T23:54:03.107Z,39.80
2018-10-21T23:56:29.202Z,39.90
2018-10-21T23:58:55.360Z,39.90
